sensor_id;sensor_type;location;lat;lon;timestamp;temperature;humidity
15452;DHT22;7827;53.594;9.938;2023-08-08T00:02:20;14.00;1.00
15452;DHT22;7827;53.594;9.938;2023-08-08T00:04:48;14.00;1.00
15452;DHT22;7827;53.594;9.938;2023-08-08T00:07:17;14.00;1.00
15452;DHT22;7827;53.594;9.938;2023-08-08T00:09:45;14.00;1.00
15452;DHT22;7827;53.594;9.938;2023-08-08T00:12:14;14.00;1.00
15452;DHT22;7827;53.594;9.938;2023-08-08T00:14:42;13.90;1.00
15452;DHT22;7827;53.594;9.938;2023-08-08T00:17:12;13.90;1.00
15452;DHT22;7827;53.594;9.938;2023-08-08T00:19:40;13.90;1.00
15452;DHT22;7827;53.594;9.938;2023-08-08T00:22:09;14.00;1.00
15452;DHT22;7827;53.594;9.938;2023-08-08T00:24:37;13.90;1.00
15452;DHT22;7827;53.594;9.938;2023-08-08T00:27:06;13.90;1.00
15452;DHT22;7827;53.594;9.938;2023-08-08T00:29:35;13.90;1.00
15452;DHT22;7827;53.594;9.938;2023-08-08T00:32:03;13.90;11.70
15452;DHT22;7827;53.594;9.938;2023-08-08T00:34:33;13.90;10.90
15452;DHT22;7827;53.594;9.938;2023-08-08T00:37:02;13.80;32.70
15452;DHT22;7827;53.594;9.938;2023-08-08T00:39:31;13.80;11.50
15452;DHT22;7827;53.594;9.938;2023-08-08T00:41:59;13.80;41.00
15452;DHT22;7827;53.594;9.938;2023-08-08T00:44:27;13.90;50.20
15452;DHT22;7827;53.594;9.938;2023-08-08T00:46:56;13.80;33.20
15452;DHT22;7827;53.594;9.938;2023-08-08T00:49:24;13.80;50.70
15452;DHT22;7827;53.594;9.938;2023-08-08T00:51:54;13.80;69.20
15452;DHT22;7827;53.594;9.938;2023-08-08T00:54:23;13.80;35.90
15452;DHT22;7827;53.594;9.938;2023-08-08T00:56:52;13.70;35.30
15452;DHT22;7827;53.594;9.938;2023-08-08T00:59:21;13.60;45.50
15452;DHT22;7827;53.594;9.938;2023-08-08T01:01:49;13.60;84.70
15452;DHT22;7827;53.594;9.938;2023-08-08T01:04:18;13.60;79.20
15452;DHT22;7827;53.594;9.938;2023-08-08T01:06:51;13.60;98.60
15452;DHT22;7827;53.594;9.938;2023-08-08T01:09:36;13.60;99.90
15452;DHT22;7827;53.594;9.938;2023-08-08T01:12:08;13.60;99.90
15452;DHT22;7827;53.594;9.938;2023-08-08T01:14:41;13.60;99.90
15452;DHT22;7827;53.594;9.938;2023-08-08T01:17:11;13.60;99.90
15452;DHT22;7827;53.594;9.938;2023-08-08T01:19:41;13.60;99.90
15452;DHT22;7827;53.594;9.938;2023-08-08T01:22:16;13.60;99.90
15452;DHT22;7827;53.594;9.938;2023-08-08T01:24:54;13.60;99.90
15452;DHT22;7827;53.594;9.938;2023-08-08T01:27:23;13.60;99.90
15452;DHT22;7827;53.594;9.938;2023-08-08T01:29:53;13.60;99.90
15452;DHT22;7827;53.594;9.938;2023-08-08T01:32:21;13.60;99.90
15452;DHT22;7827;53.594;9.938;2023-08-08T01:34:50;13.50;99.90
15452;DHT22;7827;53.594;9.938;2023-08-08T01:37:22;13.50;99.90
15452;DHT22;7827;53.594;9.938;2023-08-08T01:39:58;13.50;99.90
15452;DHT22;7827;53.594;9.938;2023-08-08T01:42:30;13.60;99.90
15452;DHT22;7827;53.594;9.938;2023-08-08T01:44:59;13.60;99.90
15452;DHT22;7827;53.594;9.938;2023-08-08T01:47:30;13.60;93.90
15452;DHT22;7827;53.594;9.938;2023-08-08T01:49:58;13.60;99.90
15452;DHT22;7827;53.594;9.938;2023-08-08T01:52:27;13.60;96.10
15452;DHT22;7827;53.594;9.938;2023-08-08T01:54:56;13.60;80.30
15452;DHT22;7827;53.594;9.938;2023-08-08T01:57:25;13.60;77.80
15452;DHT22;7827;53.594;9.938;2023-08-08T01:59:53;13.60;57.30
15452;DHT22;7827;53.594;9.938;2023-08-08T02:02:21;13.60;64.60
15452;DHT22;7827;53.594;9.938;2023-08-08T02:04:50;13.60;86.00
15452;DHT22;7827;53.594;9.938;2023-08-08T02:07:18;13.50;78.50
15452;DHT22;7827;53.594;9.938;2023-08-08T02:09:47;13.50;57.40
15452;DHT22;7827;53.594;9.938;2023-08-08T02:12:19;13.60;43.50
15452;DHT22;7827;53.594;9.938;2023-08-08T02:14:47;13.60;39.30
15452;DHT22;7827;53.594;9.938;2023-08-08T02:17:15;13.60;39.30
15452;DHT22;7827;53.594;9.938;2023-08-08T02:19:44;13.60;18.10
15452;DHT22;7827;53.594;9.938;2023-08-08T02:22:13;13.60;8.70
15452;DHT22;7827;53.594;9.938;2023-08-08T02:24:41;13.50;2.70
15452;DHT22;7827;53.594;9.938;2023-08-08T02:27:11;13.50;20.50
15452;DHT22;7827;53.594;9.938;2023-08-08T02:29:42;13.60;47.80
15452;DHT22;7827;53.594;9.938;2023-08-08T02:32:10;13.60;3.80
15452;DHT22;7827;53.594;9.938;2023-08-08T02:34:40;13.50;20.30
15452;DHT22;7827;53.594;9.938;2023-08-08T02:37:09;13.50;43.20
15452;DHT22;7827;53.594;9.938;2023-08-08T02:39:41;13.50;49.20
15452;DHT22;7827;53.594;9.938;2023-08-08T02:42:10;13.50;40.60
15452;DHT22;7827;53.594;9.938;2023-08-08T02:44:38;13.60;42.50
15452;DHT22;7827;53.594;9.938;2023-08-08T02:47:08;13.60;49.30
15452;DHT22;7827;53.594;9.938;2023-08-08T02:49:37;13.60;37.00
15452;DHT22;7827;53.594;9.938;2023-08-08T02:52:06;13.60;16.00
15452;DHT22;7827;53.594;9.938;2023-08-08T02:54:35;13.60;17.50
15452;DHT22;7827;53.594;9.938;2023-08-08T02:57:04;13.60;32.30
15452;DHT22;7827;53.594;9.938;2023-08-08T02:59:33;13.60;24.40
15452;DHT22;7827;53.594;9.938;2023-08-08T03:02:05;13.60;34.40
15452;DHT22;7827;53.594;9.938;2023-08-08T03:04:36;13.60;34.00
15452;DHT22;7827;53.594;9.938;2023-08-08T03:07:06;13.60;27.10
15452;DHT22;7827;53.594;9.938;2023-08-08T03:09:36;13.60;44.60
15452;DHT22;7827;53.594;9.938;2023-08-08T03:12:06;13.50;50.90
15452;DHT22;7827;53.594;9.938;2023-08-08T03:14:36;13.50;57.60
15452;DHT22;7827;53.594;9.938;2023-08-08T03:17:05;13.60;59.70
15452;DHT22;7827;53.594;9.938;2023-08-08T03:19:33;13.60;68.20
15452;DHT22;7827;53.594;9.938;2023-08-08T03:22:04;13.60;53.00
15452;DHT22;7827;53.594;9.938;2023-08-08T03:24:36;13.60;67.10
15452;DHT22;7827;53.594;9.938;2023-08-08T03:27:05;13.60;68.70
15452;DHT22;7827;53.594;9.938;2023-08-08T03:29:34;13.70;37.60
15452;DHT22;7827;53.594;9.938;2023-08-08T03:32:03;13.60;31.70
15452;DHT22;7827;53.594;9.938;2023-08-08T03:34:33;13.60;36.50
15452;DHT22;7827;53.594;9.938;2023-08-08T03:37:04;13.60;40.80
15452;DHT22;7827;53.594;9.938;2023-08-08T03:39:35;13.60;35.90
15452;DHT22;7827;53.594;9.938;2023-08-08T03:42:04;13.50;68.80
15452;DHT22;7827;53.594;9.938;2023-08-08T03:44:33;13.50;86.10
15452;DHT22;7827;53.594;9.938;2023-08-08T03:47:01;13.60;92.30
15452;DHT22;7827;53.594;9.938;2023-08-08T03:49:45;13.60;92.10
15452;DHT22;7827;53.594;9.938;2023-08-08T03:52:15;13.60;84.70
15452;DHT22;7827;53.594;9.938;2023-08-08T03:54:44;13.70;74.90
15452;DHT22;7827;53.594;9.938;2023-08-08T03:57:12;13.60;81.40
15452;DHT22;7827;53.594;9.938;2023-08-08T03:59:41;13.60;92.40
15452;DHT22;7827;53.594;9.938;2023-08-08T04:02:09;13.60;93.50
15452;DHT22;7827;53.594;9.938;2023-08-08T04:04:38;13.70;98.00
15452;DHT22;7827;53.594;9.938;2023-08-08T04:07:06;13.60;85.50
15452;DHT22;7827;53.594;9.938;2023-08-08T04:09:36;13.60;75.30
15452;DHT22;7827;53.594;9.938;2023-08-08T04:12:05;13.60;54.70
15452;DHT22;7827;53.594;9.938;2023-08-08T04:14:34;13.70;59.00
15452;DHT22;7827;53.594;9.938;2023-08-08T04:17:03;13.70;49.70
15452;DHT22;7827;53.594;9.938;2023-08-08T04:19:31;13.70;31.20
15452;DHT22;7827;53.594;9.938;2023-08-08T04:22:00;13.70;40.50
15452;DHT22;7827;53.594;9.938;2023-08-08T04:24:28;13.70;42.90
15452;DHT22;7827;53.594;9.938;2023-08-08T04:26:58;13.60;30.00
15452;DHT22;7827;53.594;9.938;2023-08-08T04:29:27;13.60;26.70
15452;DHT22;7827;53.594;9.938;2023-08-08T04:31:55;13.70;36.20
15452;DHT22;7827;53.594;9.938;2023-08-08T04:34:24;13.60;14.30
15452;DHT22;7827;53.594;9.938;2023-08-08T04:36:52;13.60;19.60
15452;DHT22;7827;53.594;9.938;2023-08-08T04:39:21;13.60;31.50
15452;DHT22;7827;53.594;9.938;2023-08-08T04:41:49;13.60;11.00
15452;DHT22;7827;53.594;9.938;2023-08-08T04:44:18;13.70;1.00
15452;DHT22;7827;53.594;9.938;2023-08-08T04:46:47;13.60;1.00
15452;DHT22;7827;53.594;9.938;2023-08-08T04:49:15;13.60;1.00
15452;DHT22;7827;53.594;9.938;2023-08-08T04:51:44;13.60;1.00
15452;DHT22;7827;53.594;9.938;2023-08-08T04:54:12;13.60;1.00
15452;DHT22;7827;53.594;9.938;2023-08-08T04:56:40;13.50;1.00
15452;DHT22;7827;53.594;9.938;2023-08-08T04:59:09;13.60;1.00
15452;DHT22;7827;53.594;9.938;2023-08-08T05:01:38;13.80;1.60
15452;DHT22;7827;53.594;9.938;2023-08-08T05:04:08;14.10;1.00
15452;DHT22;7827;53.594;9.938;2023-08-08T05:06:37;14.40;1.00
15452;DHT22;7827;53.594;9.938;2023-08-08T05:09:05;14.60;1.00
15452;DHT22;7827;53.594;9.938;2023-08-08T05:11:36;14.60;1.00
15452;DHT22;7827;53.594;9.938;2023-08-08T05:14:04;14.70;1.00
15452;DHT22;7827;53.594;9.938;2023-08-08T05:16:32;14.90;1.00
15452;DHT22;7827;53.594;9.938;2023-08-08T05:19:02;15.00;1.00
15452;DHT22;7827;53.594;9.938;2023-08-08T05:21:31;14.90;1.00
15452;DHT22;7827;53.594;9.938;2023-08-08T05:23:59;14.90;1.00
15452;DHT22;7827;53.594;9.938;2023-08-08T05:26:28;14.90;1.00
15452;DHT22;7827;53.594;9.938;2023-08-08T05:28:56;14.90;1.00
15452;DHT22;7827;53.594;9.938;2023-08-08T05:31:24;14.90;1.00
15452;DHT22;7827;53.594;9.938;2023-08-08T05:33:53;14.90;1.00
15452;DHT22;7827;53.594;9.938;2023-08-08T05:36:22;14.90;1.00
15452;DHT22;7827;53.594;9.938;2023-08-08T05:38:51;15.00;1.00
15452;DHT22;7827;53.594;9.938;2023-08-08T05:41:19;15.10;1.00
15452;DHT22;7827;53.594;9.938;2023-08-08T05:43:47;15.20;99.90
15452;DHT22;7827;53.594;9.938;2023-08-08T05:46:16;15.40;99.90
15452;DHT22;7827;53.594;9.938;2023-08-08T05:48:44;15.40;99.90
15452;DHT22;7827;53.594;9.938;2023-08-08T05:51:14;15.40;99.90
15452;DHT22;7827;53.594;9.938;2023-08-08T05:53:44;15.30;99.90
15452;DHT22;7827;53.594;9.938;2023-08-08T05:56:13;15.30;1.00
15452;DHT22;7827;53.594;9.938;2023-08-08T05:58:41;15.30;99.90
15452;DHT22;7827;53.594;9.938;2023-08-08T06:01:10;15.30;1.00
15452;DHT22;7827;53.594;9.938;2023-08-08T06:03:38;15.40;1.00
15452;DHT22;7827;53.594;9.938;2023-08-08T06:06:07;15.40;99.90
15452;DHT22;7827;53.594;9.938;2023-08-08T06:08:35;15.40;99.90
15452;DHT22;7827;53.594;9.938;2023-08-08T06:11:05;15.40;1.00
15452;DHT22;7827;53.594;9.938;2023-08-08T06:13:34;15.40;1.00
15452;DHT22;7827;53.594;9.938;2023-08-08T06:16:02;15.20;1.00
15452;DHT22;7827;53.594;9.938;2023-08-08T06:18:34;15.20;1.00
15452;DHT22;7827;53.594;9.938;2023-08-08T06:21:02;15.30;1.00
15452;DHT22;7827;53.594;9.938;2023-08-08T06:23:30;15.20;1.00
15452;DHT22;7827;53.594;9.938;2023-08-08T06:25:59;15.40;1.00
15452;DHT22;7827;53.594;9.938;2023-08-08T06:28:28;15.50;1.00
15452;DHT22;7827;53.594;9.938;2023-08-08T06:30:58;15.60;1.00
15452;DHT22;7827;53.594;9.938;2023-08-08T06:33:27;15.80;1.00
15452;DHT22;7827;53.594;9.938;2023-08-08T06:35:55;16.00;99.90
15452;DHT22;7827;53.594;9.938;2023-08-08T06:38:24;16.00;1.00
15452;DHT22;7827;53.594;9.938;2023-08-08T06:40:52;16.10;1.00
15452;DHT22;7827;53.594;9.938;2023-08-08T06:43:22;16.10;99.90
15452;DHT22;7827;53.594;9.938;2023-08-08T06:45:52;15.80;99.90
15452;DHT22;7827;53.594;9.938;2023-08-08T06:48:21;15.80;1.00
15452;DHT22;7827;53.594;9.938;2023-08-08T06:50:49;15.90;69.20
15452;DHT22;7827;53.594;9.938;2023-08-08T06:53:17;16.10;99.90
15452;DHT22;7827;53.594;9.938;2023-08-08T06:55:46;16.20;99.90
15452;DHT22;7827;53.594;9.938;2023-08-08T06:58:14;16.50;99.90
15452;DHT22;7827;53.594;9.938;2023-08-08T07:00:43;16.70;90.70
15452;DHT22;7827;53.594;9.938;2023-08-08T07:03:13;16.70;99.90
15452;DHT22;7827;53.594;9.938;2023-08-08T07:05:41;16.70;99.90
15452;DHT22;7827;53.594;9.938;2023-08-08T07:08:10;16.50;1.00
15452;DHT22;7827;53.594;9.938;2023-08-08T07:10:38;16.40;1.00
15452;DHT22;7827;53.594;9.938;2023-08-08T07:13:07;16.30;1.00
15452;DHT22;7827;53.594;9.938;2023-08-08T07:15:35;16.40;1.00
15452;DHT22;7827;53.594;9.938;2023-08-08T07:18:04;16.60;1.00
15452;DHT22;7827;53.594;9.938;2023-08-08T07:20:34;16.70;99.90
15452;DHT22;7827;53.594;9.938;2023-08-08T07:23:03;16.70;1.00
15452;DHT22;7827;53.594;9.938;2023-08-08T07:25:31;16.70;1.00
15452;DHT22;7827;53.594;9.938;2023-08-08T07:28:00;16.90;1.00
15452;DHT22;7827;53.594;9.938;2023-08-08T07:30:29;17.00;6.00
15452;DHT22;7827;53.594;9.938;2023-08-08T07:32:57;17.10;99.90
15452;DHT22;7827;53.594;9.938;2023-08-08T07:35:26;17.10;1.00
15452;DHT22;7827;53.594;9.938;2023-08-08T07:37:55;17.20;1.00
15452;DHT22;7827;53.594;9.938;2023-08-08T07:40:24;17.20;99.90
15452;DHT22;7827;53.594;9.938;2023-08-08T07:42:52;17.30;1.00
15452;DHT22;7827;53.594;9.938;2023-08-08T07:45:21;17.30;1.00
15452;DHT22;7827;53.594;9.938;2023-08-08T07:47:49;17.40;1.00
15452;DHT22;7827;53.594;9.938;2023-08-08T07:50:18;17.60;24.80
15452;DHT22;7827;53.594;9.938;2023-08-08T07:52:46;17.50;99.90
15452;DHT22;7827;53.594;9.938;2023-08-08T07:55:16;17.50;1.00
15452;DHT22;7827;53.594;9.938;2023-08-08T07:57:44;17.50;87.90
15452;DHT22;7827;53.594;9.938;2023-08-08T08:00:14;17.60;1.00
15452;DHT22;7827;53.594;9.938;2023-08-08T08:02:46;17.50;99.90
15452;DHT22;7827;53.594;9.938;2023-08-08T08:05:14;17.50;82.90
15452;DHT22;7827;53.594;9.938;2023-08-08T08:07:43;17.50;99.90
15452;DHT22;7827;53.594;9.938;2023-08-08T08:10:12;17.50;99.90
15452;DHT22;7827;53.594;9.938;2023-08-08T08:12:42;17.40;1.00
15452;DHT22;7827;53.594;9.938;2023-08-08T08:15:10;17.40;99.90
15452;DHT22;7827;53.594;9.938;2023-08-08T08:17:39;17.40;1.00
15452;DHT22;7827;53.594;9.938;2023-08-08T08:20:09;17.20;1.00
15452;DHT22;7827;53.594;9.938;2023-08-08T08:22:39;17.10;1.00
15452;DHT22;7827;53.594;9.938;2023-08-08T08:25:08;17.10;1.00
15452;DHT22;7827;53.594;9.938;2023-08-08T08:27:36;17.10;1.00
15452;DHT22;7827;53.594;9.938;2023-08-08T08:30:07;17.10;84.70
15452;DHT22;7827;53.594;9.938;2023-08-08T08:32:38;17.00;99.90
15452;DHT22;7827;53.594;9.938;2023-08-08T08:35:09;16.80;99.90
15452;DHT22;7827;53.594;9.938;2023-08-08T08:37:39;16.70;99.90
15452;DHT22;7827;53.594;9.938;2023-08-08T08:40:08;16.70;99.90
15452;DHT22;7827;53.594;9.938;2023-08-08T08:42:38;16.60;1.00
15452;DHT22;7827;53.594;9.938;2023-08-08T08:45:09;16.70;99.90
15452;DHT22;7827;53.594;9.938;2023-08-08T08:47:40;16.60;1.00
15452;DHT22;7827;53.594;9.938;2023-08-08T08:50:11;16.50;1.00
15452;DHT22;7827;53.594;9.938;2023-08-08T08:52:41;16.50;1.00
15452;DHT22;7827;53.594;9.938;2023-08-08T08:55:11;16.50;1.00
15452;DHT22;7827;53.594;9.938;2023-08-08T08:57:39;16.60;1.00
15452;DHT22;7827;53.594;9.938;2023-08-08T09:00:10;16.60;99.90
15452;DHT22;7827;53.594;9.938;2023-08-08T09:02:39;16.70;99.90
15452;DHT22;7827;53.594;9.938;2023-08-08T09:05:08;16.90;99.90
15452;DHT22;7827;53.594;9.938;2023-08-08T09:07:39;16.80;1.00
15452;DHT22;7827;53.594;9.938;2023-08-08T09:10:08;16.80;20.20
15452;DHT22;7827;53.594;9.938;2023-08-08T09:12:36;16.80;1.00
15452;DHT22;7827;53.594;9.938;2023-08-08T09:15:06;16.70;99.90
15452;DHT22;7827;53.594;9.938;2023-08-08T09:17:40;16.70;1.00
15452;DHT22;7827;53.594;9.938;2023-08-08T09:20:17;16.70;99.90
15452;DHT22;7827;53.594;9.938;2023-08-08T09:22:45;16.70;1.00
15452;DHT22;7827;53.594;9.938;2023-08-08T09:25:14;16.80;99.90
15452;DHT22;7827;53.594;9.938;2023-08-08T09:27:42;16.70;1.00
15452;DHT22;7827;53.594;9.938;2023-08-08T09:30:11;16.90;99.90
15452;DHT22;7827;53.594;9.938;2023-08-08T09:32:43;16.90;24.30
15452;DHT22;7827;53.594;9.938;2023-08-08T09:35:12;16.80;99.90
15452;DHT22;7827;53.594;9.938;2023-08-08T09:37:41;16.70;26.90
15452;DHT22;7827;53.594;9.938;2023-08-08T09:40:10;16.60;99.90
15452;DHT22;7827;53.594;9.938;2023-08-08T09:42:40;16.60;1.00
15452;DHT22;7827;53.594;9.938;2023-08-08T09:45:10;16.50;1.00
15452;DHT22;7827;53.594;9.938;2023-08-08T09:47:38;16.50;99.90
15452;DHT22;7827;53.594;9.938;2023-08-08T09:50:09;16.40;99.90
15452;DHT22;7827;53.594;9.938;2023-08-08T09:52:37;16.40;1.00
15452;DHT22;7827;53.594;9.938;2023-08-08T09:55:07;16.40;1.00
15452;DHT22;7827;53.594;9.938;2023-08-08T09:57:39;16.30;1.00
15452;DHT22;7827;53.594;9.938;2023-08-08T10:00:09;16.30;1.00
15452;DHT22;7827;53.594;9.938;2023-08-08T10:02:45;16.20;1.00
15452;DHT22;7827;53.594;9.938;2023-08-08T10:05:14;16.10;1.00
15452;DHT22;7827;53.594;9.938;2023-08-08T10:07:49;16.00;1.00
15452;DHT22;7827;53.594;9.938;2023-08-08T10:10:18;15.70;1.00
15452;DHT22;7827;53.594;9.938;2023-08-08T10:12:47;15.50;1.00
15452;DHT22;7827;53.594;9.938;2023-08-08T10:15:17;15.50;1.00
15452;DHT22;7827;53.594;9.938;2023-08-08T10:17:53;15.60;4.60
15452;DHT22;7827;53.594;9.938;2023-08-08T10:20:24;15.50;1.00
15452;DHT22;7827;53.594;9.938;2023-08-08T10:22:53;15.40;4.60
15452;DHT22;7827;53.594;9.938;2023-08-08T10:25:27;15.30;24.00
15452;DHT22;7827;53.594;9.938;2023-08-08T10:28:04;15.10;20.30
15452;DHT22;7827;53.594;9.938;2023-08-08T10:30:53;15.00;17.00
15452;DHT22;7827;53.594;9.938;2023-08-08T10:33:26;15.00;86.40
15452;DHT22;7827;53.594;9.938;2023-08-08T10:36:01;15.00;71.00
15452;DHT22;7827;53.594;9.938;2023-08-08T10:38:41;15.00;99.90
15452;DHT22;7827;53.594;9.938;2023-08-08T10:41:11;14.90;77.40
15452;DHT22;7827;53.594;9.938;2023-08-08T10:43:49;15.00;97.30
15452;DHT22;7827;53.594;9.938;2023-08-08T10:46:24;15.00;46.60
15452;DHT22;7827;53.594;9.938;2023-08-08T10:48:56;15.00;7.50
15452;DHT22;7827;53.594;9.938;2023-08-08T10:51:33;15.00;39.70
15452;DHT22;7827;53.594;9.938;2023-08-08T10:54:04;14.90;10.00
15452;DHT22;7827;53.594;9.938;2023-08-08T10:56:35;14.80;52.10
15452;DHT22;7827;53.594;9.938;2023-08-08T10:59:13;14.80;20.30
15452;DHT22;7827;53.594;9.938;2023-08-08T11:01:45;14.60;37.90
15452;DHT22;7827;53.594;9.938;2023-08-08T11:04:18;14.60;80.40
15452;DHT22;7827;53.594;9.938;2023-08-08T11:06:48;14.50;47.20
15452;DHT22;7827;53.594;9.938;2023-08-08T11:09:17;14.40;59.80
15452;DHT22;7827;53.594;9.938;2023-08-08T11:11:46;14.50;99.90
15452;DHT22;7827;53.594;9.938;2023-08-08T11:14:17;14.60;98.70
15452;DHT22;7827;53.594;9.938;2023-08-08T11:16:47;14.70;1.00
15452;DHT22;7827;53.594;9.938;2023-08-08T11:19:20;14.70;1.00
15452;DHT22;7827;53.594;9.938;2023-08-08T11:21:49;14.70;1.00
15452;DHT22;7827;53.594;9.938;2023-08-08T11:24:18;14.80;1.00
15452;DHT22;7827;53.594;9.938;2023-08-08T11:26:46;14.80;24.40
15452;DHT22;7827;53.594;9.938;2023-08-08T11:29:15;14.80;27.90
15452;DHT22;7827;53.594;9.938;2023-08-08T11:31:43;14.60;1.00
15452;DHT22;7827;53.594;9.938;2023-08-08T11:34:15;14.60;14.60
15452;DHT22;7827;53.594;9.938;2023-08-08T11:36:46;14.60;53.00
15452;DHT22;7827;53.594;9.938;2023-08-08T11:39:15;14.70;99.90
15452;DHT22;7827;53.594;9.938;2023-08-08T11:41:44;14.90;50.40
15452;DHT22;7827;53.594;9.938;2023-08-08T11:44:13;15.20;17.90
15452;DHT22;7827;53.594;9.938;2023-08-08T11:46:45;15.50;79.20
15452;DHT22;7827;53.594;9.938;2023-08-08T11:49:14;15.50;1.00
15452;DHT22;7827;53.594;9.938;2023-08-08T11:51:45;15.60;1.00
15452;DHT22;7827;53.594;9.938;2023-08-08T11:54:14;15.60;1.00
15452;DHT22;7827;53.594;9.938;2023-08-08T11:56:43;15.60;1.00
15452;DHT22;7827;53.594;9.938;2023-08-08T11:59:12;15.60;1.00
15452;DHT22;7827;53.594;9.938;2023-08-08T12:01:41;15.60;1.00
15452;DHT22;7827;53.594;9.938;2023-08-08T12:04:11;15.60;1.00
15452;DHT22;7827;53.594;9.938;2023-08-08T12:06:40;15.70;1.00
15452;DHT22;7827;53.594;9.938;2023-08-08T12:09:12;15.90;1.00
15452;DHT22;7827;53.594;9.938;2023-08-08T12:11:41;16.00;1.00
15452;DHT22;7827;53.594;9.938;2023-08-08T12:14:11;16.10;1.00
15452;DHT22;7827;53.594;9.938;2023-08-08T12:16:42;16.00;1.00
15452;DHT22;7827;53.594;9.938;2023-08-08T12:19:11;16.00;1.00
15452;DHT22;7827;53.594;9.938;2023-08-08T12:21:44;16.30;1.00
15452;DHT22;7827;53.594;9.938;2023-08-08T12:24:14;16.40;1.00
15452;DHT22;7827;53.594;9.938;2023-08-08T12:26:42;16.50;1.00
15452;DHT22;7827;53.594;9.938;2023-08-08T12:29:11;16.60;1.00
15452;DHT22;7827;53.594;9.938;2023-08-08T12:31:40;16.60;1.00
15452;DHT22;7827;53.594;9.938;2023-08-08T12:34:08;16.80;1.00
15452;DHT22;7827;53.594;9.938;2023-08-08T12:36:37;17.10;1.00
15452;DHT22;7827;53.594;9.938;2023-08-08T12:39:06;17.20;99.90
15452;DHT22;7827;53.594;9.938;2023-08-08T12:41:36;17.40;1.00
15452;DHT22;7827;53.594;9.938;2023-08-08T12:44:05;17.60;1.00
15452;DHT22;7827;53.594;9.938;2023-08-08T12:46:34;17.80;99.90
15452;DHT22;7827;53.594;9.938;2023-08-08T12:49:03;17.70;1.00
15452;DHT22;7827;53.594;9.938;2023-08-08T12:51:32;17.90;99.90
15452;DHT22;7827;53.594;9.938;2023-08-08T12:54:00;17.80;1.00
15452;DHT22;7827;53.594;9.938;2023-08-08T12:56:28;17.80;99.90
15452;DHT22;7827;53.594;9.938;2023-08-08T12:58:58;17.60;1.00
15452;DHT22;7827;53.594;9.938;2023-08-08T13:01:26;17.60;99.90
15452;DHT22;7827;53.594;9.938;2023-08-08T13:03:54;17.50;99.90
15452;DHT22;7827;53.594;9.938;2023-08-08T13:06:29;17.10;99.90
15452;DHT22;7827;53.594;9.938;2023-08-08T13:08:57;16.50;99.90
15452;DHT22;7827;53.594;9.938;2023-08-08T13:11:26;16.10;99.90
15452;DHT22;7827;53.594;9.938;2023-08-08T13:13:54;15.90;1.00
15452;DHT22;7827;53.594;9.938;2023-08-08T13:16:24;15.80;1.00
15452;DHT22;7827;53.594;9.938;2023-08-08T13:18:53;15.60;1.00
15452;DHT22;7827;53.594;9.938;2023-08-08T13:21:21;15.60;1.00
15452;DHT22;7827;53.594;9.938;2023-08-08T13:23:49;15.80;1.00
15452;DHT22;7827;53.594;9.938;2023-08-08T13:26:18;16.10;1.00
15452;DHT22;7827;53.594;9.938;2023-08-08T13:28:46;16.50;1.00
15452;DHT22;7827;53.594;9.938;2023-08-08T13:31:16;16.80;1.00
15452;DHT22;7827;53.594;9.938;2023-08-08T13:33:46;17.20;99.90
15452;DHT22;7827;53.594;9.938;2023-08-08T13:36:14;17.40;99.90
15452;DHT22;7827;53.594;9.938;2023-08-08T13:38:43;17.50;1.00
15452;DHT22;7827;53.594;9.938;2023-08-08T13:41:11;17.50;99.90
15452;DHT22;7827;53.594;9.938;2023-08-08T13:43:40;17.70;1.00
15452;DHT22;7827;53.594;9.938;2023-08-08T13:46:08;17.70;99.90
15452;DHT22;7827;53.594;9.938;2023-08-08T13:48:37;17.50;1.00
15452;DHT22;7827;53.594;9.938;2023-08-08T13:51:07;17.40;1.00
15452;DHT22;7827;53.594;9.938;2023-08-08T13:53:35;17.30;1.00
15452;DHT22;7827;53.594;9.938;2023-08-08T13:56:03;16.70;1.00
15452;DHT22;7827;53.594;9.938;2023-08-08T13:58:32;16.20;1.00
15452;DHT22;7827;53.594;9.938;2023-08-08T14:01:00;15.90;1.00
15452;DHT22;7827;53.594;9.938;2023-08-08T14:03:29;15.80;1.00
15452;DHT22;7827;53.594;9.938;2023-08-08T14:05:57;15.70;1.00
15452;DHT22;7827;53.594;9.938;2023-08-08T14:08:27;15.70;1.00
15452;DHT22;7827;53.594;9.938;2023-08-08T14:10:55;15.70;1.00
15452;DHT22;7827;53.594;9.938;2023-08-08T14:13:24;15.70;1.00
15452;DHT22;7827;53.594;9.938;2023-08-08T14:15:52;15.80;1.00
15452;DHT22;7827;53.594;9.938;2023-08-08T14:18:21;15.90;1.00
15452;DHT22;7827;53.594;9.938;2023-08-08T14:20:49;15.90;1.00
15452;DHT22;7827;53.594;9.938;2023-08-08T14:23:18;15.90;1.00
15452;DHT22;7827;53.594;9.938;2023-08-08T14:25:47;16.10;1.00
15452;DHT22;7827;53.594;9.938;2023-08-08T14:28:16;16.10;99.90
15452;DHT22;7827;53.594;9.938;2023-08-08T14:30:44;16.00;1.00
15452;DHT22;7827;53.594;9.938;2023-08-08T14:33:13;15.90;1.00
15452;DHT22;7827;53.594;9.938;2023-08-08T14:35:42;15.90;1.00
15452;DHT22;7827;53.594;9.938;2023-08-08T14:38:11;15.90;1.00
15452;DHT22;7827;53.594;9.938;2023-08-08T14:40:39;16.10;1.00
15452;DHT22;7827;53.594;9.938;2023-08-08T14:43:09;16.20;99.90
15452;DHT22;7827;53.594;9.938;2023-08-08T14:45:38;16.30;99.90
15452;DHT22;7827;53.594;9.938;2023-08-08T14:48:07;16.40;99.90
15452;DHT22;7827;53.594;9.938;2023-08-08T14:50:36;16.40;1.00
15452;DHT22;7827;53.594;9.938;2023-08-08T14:53:05;16.60;1.00
15452;DHT22;7827;53.594;9.938;2023-08-08T14:55:33;16.70;1.00
15452;DHT22;7827;53.594;9.938;2023-08-08T14:58:02;16.80;1.00
15452;DHT22;7827;53.594;9.938;2023-08-08T15:00:32;16.70;1.00
15452;DHT22;7827;53.594;9.938;2023-08-08T15:03:00;16.70;99.90
15452;DHT22;7827;53.594;9.938;2023-08-08T15:05:29;16.70;1.00
15452;DHT22;7827;53.594;9.938;2023-08-08T15:07:57;16.60;99.90
15452;DHT22;7827;53.594;9.938;2023-08-08T15:10:26;16.50;1.00
15452;DHT22;7827;53.594;9.938;2023-08-08T15:12:54;16.50;99.90
15452;DHT22;7827;53.594;9.938;2023-08-08T15:15:22;16.50;14.70
15452;DHT22;7827;53.594;9.938;2023-08-08T15:17:54;16.40;1.00
15452;DHT22;7827;53.594;9.938;2023-08-08T15:20:22;16.20;1.00
15452;DHT22;7827;53.594;9.938;2023-08-08T15:22:51;16.00;99.90
15452;DHT22;7827;53.594;9.938;2023-08-08T15:25:19;15.80;95.70
15452;DHT22;7827;53.594;9.938;2023-08-08T15:27:48;15.60;99.90
15452;DHT22;7827;53.594;9.938;2023-08-08T15:30:17;15.40;1.00
15452;DHT22;7827;53.594;9.938;2023-08-08T15:32:45;15.30;1.00
15452;DHT22;7827;53.594;9.938;2023-08-08T15:35:15;15.20;1.00
15452;DHT22;7827;53.594;9.938;2023-08-08T15:37:43;15.10;1.00
15452;DHT22;7827;53.594;9.938;2023-08-08T15:40:11;14.90;1.00
15452;DHT22;7827;53.594;9.938;2023-08-08T15:42:40;14.90;1.00
15452;DHT22;7827;53.594;9.938;2023-08-08T15:45:10;14.80;1.00
15452;DHT22;7827;53.594;9.938;2023-08-08T15:47:39;14.90;1.00
15452;DHT22;7827;53.594;9.938;2023-08-08T15:50:08;14.60;9.40
15452;DHT22;7827;53.594;9.938;2023-08-08T15:52:38;14.60;1.00
15452;DHT22;7827;53.594;9.938;2023-08-08T15:55:08;14.50;1.00
15452;DHT22;7827;53.594;9.938;2023-08-08T15:57:37;14.40;1.00
15452;DHT22;7827;53.594;9.938;2023-08-08T16:00:06;14.10;17.10
15452;DHT22;7827;53.594;9.938;2023-08-08T16:02:42;14.00;37.30
15452;DHT22;7827;53.594;9.938;2023-08-08T16:05:10;14.00;88.20
15452;DHT22;7827;53.594;9.938;2023-08-08T16:07:40;13.90;94.20